sensor_id;sensor_type;location;lat;lon;timestamp;pressure;altitude;pressure_sealevel;temperature;humidity
9141;BME280;46330;50.822;7.126;2023-04-26T00:02:22;101215.97;;;4.18;88.60
9141;BME280;46330;50.822;7.126;2023-04-26T00:04:50;101215.97;;;4.17;89.05
9141;BME280;46330;50.822;7.126;2023-04-26T00:07:22;101217.63;;;4.13;89.59
9141;BME280;46330;50.822;7.126;2023-04-26T00:09:50;101220.13;;;4.07;89.40
9141;BME280;46330;50.822;7.126;2023-04-26T00:12:20;101214.88;;;4.03;89.42
9141;BME280;46330;50.822;7.126;2023-04-26T00:14:48;101219.09;;;3.98;89.42
9141;BME280;46330;50.822;7.126;2023-04-26T00:17:16;101212.94;;;3.91;89.79
9141;BME280;46330;50.822;7.126;2023-04-26T00:19:44;101208.59;;;3.89;89.90
9141;BME280;46330;50.822;7.126;2023-04-26T00:22:12;101205.09;;;3.87;90.11
9141;BME280;46330;50.822;7.126;2023-04-26T00:24:40;101215.50;;;3.90;90.08
9141;BME280;46330;50.822;7.126;2023-04-26T00:27:08;101213.84;;;3.92;89.88
9141;BME280;46330;50.822;7.126;2023-04-26T00:29:38;101203.38;;;3.87;90.33
9141;BME280;46330;50.822;7.126;2023-04-26T00:32:06;101212.75;;;3.80;90.03
9141;BME280;46330;50.822;7.126;2023-04-26T00:34:34;101204.91;;;3.74;89.72
9141;BME280;46330;50.822;7.126;2023-04-26T00:37:03;101199.66;;;3.71;90.02
9141;BME280;46330;50.822;7.126;2023-04-26T00:39:31;101200.44;;;3.66;90.79
9141;BME280;46330;50.822;7.126;2023-04-26T00:41:59;101203.81;;;3.62;91.27
9141;BME280;46330;50.822;7.126;2023-04-26T00:44:27;101207.16;;;3.55;91.87
9141;BME280;46330;50.822;7.126;2023-04-26T00:46:56;101202.75;;;3.51;91.68
9141;BME280;46330;50.822;7.126;2023-04-26T00:49:24;101197.44;;;3.43;92.42
9141;BME280;46330;50.822;7.126;2023-04-26T00:51:52;101193.09;;;3.41;92.28
9141;BME280;46330;50.822;7.126;2023-04-26T00:54:21;101199.94;;;3.39;92.50
9141;BME280;46330;50.822;7.126;2023-04-26T00:56:49;101195.53;;;3.33;92.53
9141;BME280;46330;50.822;7.126;2023-04-26T00:59:19;101192.03;;;3.31;92.34
9141;BME280;46330;50.822;7.126;2023-04-26T01:01:47;101193.72;;;3.29;91.68
9141;BME280;46330;50.822;7.126;2023-04-26T01:04:16;101194.44;;;3.22;93.03
9141;BME280;46330;50.822;7.126;2023-04-26T01:06:45;101200.28;;;3.12;92.65
9141;BME280;46330;50.822;7.126;2023-04-26T01:09:13;101202.81;;;3.09;93.51
9141;BME280;46330;50.822;7.126;2023-04-26T01:11:42;101201.97;;;3.10;93.57
9141;BME280;46330;50.822;7.126;2023-04-26T01:14:11;101206.19;;;3.06;92.94
9141;BME280;46330;50.822;7.126;2023-04-26T01:16:40;101213.06;;;3.04;93.41
9141;BME280;46330;50.822;7.126;2023-04-26T01:19:12;101218.22;;;3.04;93.63
9141;BME280;46330;50.822;7.126;2023-04-26T01:21:45;101220.75;;;3.01;93.98
9141;BME280;46330;50.822;7.126;2023-04-26T01:24:14;101225.91;;;3.01;94.38
9141;BME280;46330;50.822;7.126;2023-04-26T01:26:43;101214.69;;;3.01;94.10
9141;BME280;46330;50.822;7.126;2023-04-26T01:29:14;101217.25;;;2.99;93.81
9141;BME280;46330;50.822;7.126;2023-04-26T01:31:42;101225.81;;;2.97;93.59
9141;BME280;46330;50.822;7.126;2023-04-26T01:34:11;101218.81;;;2.91;93.74
9141;BME280;46330;50.822;7.126;2023-04-26T01:36:39;101213.34;;;2.78;93.94
9141;BME280;46330;50.822;7.126;2023-04-26T01:39:07;101214.91;;;2.69;94.36
9141;BME280;46330;50.822;7.126;2023-04-26T01:41:36;101220.06;;;2.69;94.16
9141;BME280;46330;50.822;7.126;2023-04-26T01:44:04;101216.72;;;2.74;94.73
9141;BME280;46330;50.822;7.126;2023-04-26T01:46:32;101211.44;;;2.69;94.71
9141;BME280;46330;50.822;7.126;2023-04-26T01:49:00;101211.50;;;2.70;94.37
9141;BME280;46330;50.822;7.126;2023-04-26T01:51:28;101215.78;;;2.70;94.63
9141;BME280;46330;50.822;7.126;2023-04-26T01:53:57;101206.28;;;2.69;94.55
9141;BME280;46330;50.822;7.126;2023-04-26T01:56:25;101216.59;;;2.69;94.39
9141;BME280;46330;50.822;7.126;2023-04-26T01:58:54;101213.97;;;2.66;93.75
9141;BME280;46330;50.822;7.126;2023-04-26T02:01:23;101209.56;;;2.62;94.35
9141;BME280;46330;50.822;7.126;2023-04-26T02:03:51;101210.44;;;2.62;94.34
9141;BME280;46330;50.822;7.126;2023-04-26T02:06:19;101207.84;;;2.62;94.07
9141;BME280;46330;50.822;7.126;2023-04-26T02:08:47;101209.53;;;2.60;94.29
9141;BME280;46330;50.822;7.126;2023-04-26T02:11:15;101212.06;;;2.59;93.94
9141;BME280;46330;50.822;7.126;2023-04-26T02:13:43;101214.50;;;2.51;93.84
9141;BME280;46330;50.822;7.126;2023-04-26T02:16:12;101202.34;;;2.46;94.98
9141;BME280;46330;50.822;7.126;2023-04-26T02:18:41;101207.44;;;2.44;95.10
9141;BME280;46330;50.822;7.126;2023-04-26T02:21:10;101211.59;;;2.38;95.04
9141;BME280;46330;50.822;7.126;2023-04-26T02:23:38;101202.84;;;2.31;95.50
9141;BME280;46330;50.822;7.126;2023-04-26T02:26:08;101202.84;;;2.31;95.59
9141;BME280;46330;50.822;7.126;2023-04-26T02:28:37;101213.22;;;2.33;95.38
9141;BME280;46330;50.822;7.126;2023-04-26T02:31:05;101207.13;;;2.31;95.29
9141;BME280;46330;50.822;7.126;2023-04-26T02:33:34;101216.56;;;2.29;95.38
9141;BME280;46330;50.822;7.126;2023-04-26T02:36:03;101198.41;;;2.26;94.82
9141;BME280;46330;50.822;7.126;2023-04-26T02:38:33;101204.34;;;2.22;95.18
9141;BME280;46330;50.822;7.126;2023-04-26T02:41:03;101206.84;;;2.18;95.47
9141;BME280;46330;50.822;7.126;2023-04-26T02:43:32;101207.69;;;2.17;96.06
9141;BME280;46330;50.822;7.126;2023-04-26T02:46:00;101200.50;;;2.06;96.69
9141;BME280;46330;50.822;7.126;2023-04-26T02:48:30;101210.88;;;2.07;96.57
9141;BME280;46330;50.822;7.126;2023-04-26T02:50:59;101209.13;;;2.05;96.59
9141;BME280;46330;50.822;7.126;2023-04-26T02:53:27;101212.56;;;2.05;96.09
9141;BME280;46330;50.822;7.126;2023-04-26T02:55:55;101206.47;;;2.02;96.48
9141;BME280;46330;50.822;7.126;2023-04-26T02:58:23;101208.03;;;1.97;96.58
9141;BME280;46330;50.822;7.126;2023-04-26T03:00:51;101206.31;;;1.96;96.74
9141;BME280;46330;50.822;7.126;2023-04-26T03:03:20;101206.09;;;1.87;96.67
9141;BME280;46330;50.822;7.126;2023-04-26T03:05:49;101208.66;;;1.87;97.62
9141;BME280;46330;50.822;7.126;2023-04-26T03:08:18;101212.06;;;1.86;97.48
9141;BME280;46330;50.822;7.126;2023-04-26T03:10:46;101211.13;;;1.84;97.83
9141;BME280;46330;50.822;7.126;2023-04-26T03:13:14;101199.09;;;1.83;97.62
9141;BME280;46330;50.822;7.126;2023-04-26T03:15:43;101202.47;;;1.80;98.22
9141;BME280;46330;50.822;7.126;2023-04-26T03:18:11;101207.75;;;1.85;98.26
9141;BME280;46330;50.822;7.126;2023-04-26T03:20:40;101207.72;;;1.83;98.67
9141;BME280;46330;50.822;7.126;2023-04-26T03:23:08;101208.41;;;1.78;98.30
9141;BME280;46330;50.822;7.126;2023-04-26T03:25:37;101204.06;;;1.75;98.59
9141;BME280;46330;50.822;7.126;2023-04-26T03:28:06;101211.72;;;1.72;98.58
9141;BME280;46330;50.822;7.126;2023-04-26T03:30:34;101210.72;;;1.67;99.05
9141;BME280;46330;50.822;7.126;2023-04-26T03:33:03;101208.19;;;1.69;99.46
9141;BME280;46330;50.822;7.126;2023-04-26T03:35:31;101198.81;;;1.71;98.71
9141;BME280;46330;50.822;7.126;2023-04-26T03:37:59;101196.16;;;1.68;99.55
9141;BME280;46330;50.822;7.126;2023-04-26T03:40:27;101207.19;;;1.63;100.00
9141;BME280;46330;50.822;7.126;2023-04-26T03:42:56;101197.84;;;1.67;100.00
9141;BME280;46330;50.822;7.126;2023-04-26T03:45:24;101192.75;;;1.70;100.00
9141;BME280;46330;50.822;7.126;2023-04-26T03:47:52;101190.09;;;1.67;100.00
9141;BME280;46330;50.822;7.126;2023-04-26T03:50:21;101191.88;;;1.68;100.00
9141;BME280;46330;50.822;7.126;2023-04-26T03:52:50;101196.16;;;1.68;100.00
9141;BME280;46330;50.822;7.126;2023-04-26T03:55:17;101188.56;;;1.74;100.00
9141;BME280;46330;50.822;7.126;2023-04-26T03:57:45;101199.81;;;1.77;100.00
9141;BME280;46330;50.822;7.126;2023-04-26T04:00:15;101200.59;;;1.75;100.00
9141;BME280;46330;50.822;7.126;2023-04-26T04:02:43;101189.28;;;1.68;100.00
9141;BME280;46330;50.822;7.126;2023-04-26T04:05:20;101197.78;;;1.64;100.00
9141;BME280;46330;50.822;7.126;2023-04-26T04:07:48;101193.56;;;1.68;100.00
9141;BME280;46330;50.822;7.126;2023-04-26T04:10:18;101201.16;;;1.61;100.00
9141;BME280;46330;50.822;7.126;2023-04-26T04:12:48;101198.50;;;1.60;100.00
9141;BME280;46330;50.822;7.126;2023-04-26T04:15:19;101206.16;;;1.55;100.00
9141;BME280;46330;50.822;7.126;2023-04-26T04:17:48;101195.91;;;1.58;100.00
9141;BME280;46330;50.822;7.126;2023-04-26T04:20:16;101195.13;;;1.62;100.00
9141;BME280;46330;50.822;7.126;2023-04-26T04:22:46;101200.13;;;1.56;100.00
9141;BME280;46330;50.822;7.126;2023-04-26T04:25:14;101201.09;;;1.60;100.00
9141;BME280;46330;50.822;7.126;2023-04-26T04:27:42;101202.00;;;1.62;100.00
9141;BME280;46330;50.822;7.126;2023-04-26T04:30:11;101201.16;;;1.63;100.00
9141;BME280;46330;50.822;7.126;2023-04-26T04:32:41;101209.78;;;1.63;100.00
9141;BME280;46330;50.822;7.126;2023-04-26T04:35:14;101208.16;;;1.67;100.00
9141;BME280;46330;50.822;7.126;2023-04-26T04:37:41;101216.84;;;1.71;100.00
9141;BME280;46330;50.822;7.126;2023-04-26T04:40:12;101224.66;;;1.74;100.00
9141;BME280;46330;50.822;7.126;2023-04-26T04:42:43;101223.84;;;1.76;100.00
9141;BME280;46330;50.822;7.126;2023-04-26T04:45:13;101223.72;;;1.72;100.00
9141;BME280;46330;50.822;7.126;2023-04-26T04:47:43;101216.88;;;1.72;100.00
9141;BME280;46330;50.822;7.126;2023-04-26T04:50:12;101228.28;;;1.80;100.00
9141;BME280;46330;50.822;7.126;2023-04-26T04:52:42;101228.53;;;1.91;100.00
9141;BME280;46330;50.822;7.126;2023-04-26T04:55:10;101238.84;;;1.91;100.00
9141;BME280;46330;50.822;7.126;2023-04-26T04:57:38;101232.06;;;1.94;100.00
9141;BME280;46330;50.822;7.126;2023-04-26T05:00:10;101233.22;;;2.07;100.00
9141;BME280;46330;50.822;7.126;2023-04-26T05:03:02;101231.63;;;2.12;99.96
9141;BME280;46330;50.822;7.126;2023-04-26T05:05:31;101232.63;;;2.17;100.00
9141;BME280;46330;50.822;7.126;2023-04-26T05:07:58;101244.00;;;2.25;99.89
9141;BME280;46330;50.822;7.126;2023-04-26T05:10:26;101241.91;;;2.46;98.39
9141;BME280;46330;50.822;7.126;2023-04-26T05:12:54;101251.25;;;2.77;98.60
9141;BME280;46330;50.822;7.126;2023-04-26T05:15:23;101246.41;;;2.92;96.33
9141;BME280;46330;50.822;7.126;2023-04-26T05:17:50;101237.50;;;3.21;95.37
9141;BME280;46330;50.822;7.126;2023-04-26T05:20:24;101249.91;;;3.38;93.05
9141;BME280;46330;50.822;7.126;2023-04-26T05:22:52;101251.78;;;3.45;92.68
9141;BME280;46330;50.822;7.126;2023-04-26T05:25:20;101252.06;;;3.61;91.85
9141;BME280;46330;50.822;7.126;2023-04-26T05:27:54;101253.97;;;3.70;91.20
9141;BME280;46330;50.822;7.126;2023-04-26T05:30:40;101253.69;;;4.03;89.96
9141;BME280;46330;50.822;7.126;2023-04-26T05:33:23;101256.16;;;4.48;86.99
9141;BME280;46330;50.822;7.126;2023-04-26T05:36:07;101254.16;;;4.90;85.82
9141;BME280;46330;50.822;7.126;2023-04-26T05:38:35;101262.19;;;5.08;84.18
9141;BME280;46330;50.822;7.126;2023-04-26T05:41:04;101254.47;;;5.13;82.75
9141;BME280;46330;50.822;7.126;2023-04-26T05:43:31;101257.84;;;5.06;83.66
9141;BME280;46330;50.822;7.126;2023-04-26T05:45:59;101267.97;;;5.57;81.47
9141;BME280;46330;50.822;7.126;2023-04-26T05:48:28;101261.53;;;6.00;80.13
9141;BME280;46330;50.822;7.126;2023-04-26T05:50:56;101269.22;;;5.90;78.57
9141;BME280;46330;50.822;7.126;2023-04-26T05:53:25;101266.03;;;6.20;77.85
9141;BME280;46330;50.822;7.126;2023-04-26T05:55:54;101272.13;;;6.24;76.62
9141;BME280;46330;50.822;7.126;2023-04-26T05:58:22;101268.84;;;6.46;76.95
9141;BME280;46330;50.822;7.126;2023-04-26T06:00:50;101267.34;;;6.78;75.67
9141;BME280;46330;50.822;7.126;2023-04-26T06:03:19;101269.94;;;6.83;74.81
9141;BME280;46330;50.822;7.126;2023-04-26T06:05:47;101271.78;;;7.02;74.43
9141;BME280;46330;50.822;7.126;2023-04-26T06:08:15;101273.63;;;7.21;73.33
9141;BME280;46330;50.822;7.126;2023-04-26T06:10:44;101277.25;;;7.64;71.32
9141;BME280;46330;50.822;7.126;2023-04-26T06:13:13;101278.19;;;7.89;70.29
9141;BME280;46330;50.822;7.126;2023-04-26T06:15:42;101272.13;;;8.09;69.41
9141;BME280;46330;50.822;7.126;2023-04-26T06:18:09;101271.25;;;8.23;68.74
9141;BME280;46330;50.822;7.126;2023-04-26T06:20:38;101273.91;;;8.30;68.10
9141;BME280;46330;50.822;7.126;2023-04-26T06:23:06;101272.13;;;8.93;65.70
9141;BME280;46330;50.822;7.126;2023-04-26T06:25:34;101286.72;;;9.44;63.23
9141;BME280;46330;50.822;7.126;2023-04-26T06:28:04;101282.50;;;9.05;62.97
9141;BME280;46330;50.822;7.126;2023-04-26T06:30:33;101288.34;;;9.66;63.34
9141;BME280;46330;50.822;7.126;2023-04-26T06:33:01;101282.94;;;9.96;61.02
9141;BME280;46330;50.822;7.126;2023-04-26T06:35:31;101278.47;;;10.21;60.26
9141;BME280;46330;50.822;7.126;2023-04-26T06:38:00;101293.22;;;10.30;59.11
9141;BME280;46330;50.822;7.126;2023-04-26T06:40:28;101294.91;;;10.31;58.69
9141;BME280;46330;50.822;7.126;2023-04-26T06:42:57;101294.94;;;10.34;58.34
9141;BME280;46330;50.822;7.126;2023-04-26T06:45:35;101297.03;;;10.88;56.05
9141;BME280;46330;50.822;7.126;2023-04-26T06:48:03;101293.47;;;10.97;56.98
9141;BME280;46330;50.822;7.126;2023-04-26T06:50:32;101292.56;;;11.01;57.21
9141;BME280;46330;50.822;7.126;2023-04-26T06:53:03;101298.47;;;10.27;58.62
9141;BME280;46330;50.822;7.126;2023-04-26T06:55:31;101291.59;;;10.03;58.70
9141;BME280;46330;50.822;7.126;2023-04-26T06:57:59;101291.28;;;10.50;57.52
9141;BME280;46330;50.822;7.126;2023-04-26T07:00:28;101289.38;;;10.68;57.29
9141;BME280;46330;50.822;7.126;2023-04-26T07:02:57;101284.56;;;11.13;54.99
9141;BME280;46330;50.822;7.126;2023-04-26T07:05:25;101291.53;;;11.12;55.35
9141;BME280;46330;50.822;7.126;2023-04-26T07:07:53;101292.59;;;11.68;54.62
9141;BME280;46330;50.822;7.126;2023-04-26T07:10:21;101288.31;;;11.62;55.04
9141;BME280;46330;50.822;7.126;2023-04-26T07:12:49;101281.06;;;11.12;55.28
9141;BME280;46330;50.822;7.126;2023-04-26T07:15:17;101284.16;;;10.65;55.89
9141;BME280;46330;50.822;7.126;2023-04-26T10:10:50;101239.56;;;10.79;44.84
9141;BME280;46330;50.822;7.126;2023-04-26T10:13:18;101237.34;;;11.19;43.54
9141;BME280;46330;50.822;7.126;2023-04-26T10:15:46;101233.00;;;11.83;44.24
9141;BME280;46330;50.822;7.126;2023-04-26T10:18:15;101240.34;;;12.67;43.51
9141;BME280;46330;50.822;7.126;2023-04-26T10:20:46;101243.44;;;13.75;41.36
9141;BME280;46330;50.822;7.126;2023-04-26T10:23:17;101239.84;;;14.14;37.75
9141;BME280;46330;50.822;7.126;2023-04-26T10:25:47;101237.56;;;15.03;37.13
9141;BME280;46330;50.822;7.126;2023-04-26T10:28:16;101238.63;;;15.58;36.35
9141;BME280;46330;50.822;7.126;2023-04-26T10:30:54;101236.84;;;16.14;33.96
9141;BME280;46330;50.822;7.126;2023-04-26T10:33:23;101233.91;;;15.95;36.12
9141;BME280;46330;50.822;7.126;2023-04-26T10:36:03;101221.31;;;16.31;34.61
9141;BME280;46330;50.822;7.126;2023-04-26T10:38:32;101218.47;;;15.83;32.50
9141;BME280;46330;50.822;7.126;2023-04-26T10:41:28;101228.88;;;15.60;31.84
9141;BME280;46330;50.822;7.126;2023-04-26T10:46:48;101214.19;;;15.79;33.45
9141;BME280;46330;50.822;7.126;2023-04-26T10:49:18;101215.94;;;15.80;34.56
9141;BME280;46330;50.822;7.126;2023-04-26T10:52:10;101216.00;;;17.07;31.05
9141;BME280;46330;50.822;7.126;2023-04-26T10:54:50;101212.94;;;16.94;32.22
9141;BME280;46330;50.822;7.126;2023-04-26T10:57:18;101213.81;;;15.34;32.27
9141;BME280;46330;50.822;7.126;2023-04-26T11:00:22;101220.31;;;14.26;35.54
9141;BME280;46330;50.822;7.126;2023-04-26T11:02:57;101226.00;;;14.08;36.95
9141;BME280;46330;50.822;7.126;2023-04-26T11:05:50;101214.72;;;12.81;39.06
9141;BME280;46330;50.822;7.126;2023-04-26T11:08:19;101218.81;;;13.39;39.00
9141;BME280;46330;50.822;7.126;2023-04-26T11:10:56;101218.75;;;12.99;39.27
9141;BME280;46330;50.822;7.126;2023-04-26T11:13:24;101214.28;;;13.03;39.25
9141;BME280;46330;50.822;7.126;2023-04-26T11:15:58;101221.59;;;12.87;40.36
9141;BME280;46330;50.822;7.126;2023-04-26T11:18:29;101220.63;;;14.12;39.14
9141;BME280;46330;50.822;7.126;2023-04-26T12:09:40;101191.03;;;16.91;31.14
9141;BME280;46330;50.822;7.126;2023-04-26T12:12:10;101181.84;;;17.47;29.67
9141;BME280;46330;50.822;7.126;2023-04-26T12:14:39;101177.16;;;17.32;27.56
9141;BME280;46330;50.822;7.126;2023-04-26T12:17:07;101176.50;;;17.49;30.32
9141;BME280;46330;50.822;7.126;2023-04-26T12:19:37;101174.72;;;16.80;30.88
9141;BME280;46330;50.822;7.126;2023-04-26T12:22:06;101182.38;;;16.11;32.22
9141;BME280;46330;50.822;7.126;2023-04-26T12:24:34;101179.75;;;16.36;31.10
9141;BME280;46330;50.822;7.126;2023-04-26T12:27:05;101179.63;;;15.88;30.81
9141;BME280;46330;50.822;7.126;2023-04-26T12:29:34;101180.44;;;16.17;31.47
9141;BME280;46330;50.822;7.126;2023-04-26T12:32:02;101188.66;;;15.81;32.46
9141;BME280;46330;50.822;7.126;2023-04-26T12:34:30;101186.59;;;16.17;31.65
9141;BME280;46330;50.822;7.126;2023-04-26T12:36:58;101180.97;;;16.52;29.99
9141;BME280;46330;50.822;7.126;2023-04-26T12:39:26;101186.63;;;17.38;30.93
9141;BME280;46330;50.822;7.126;2023-04-26T12:41:54;101172.41;;;16.71;31.80
9141;BME280;46330;50.822;7.126;2023-04-26T12:44:23;101184.69;;;17.19;30.51
9141;BME280;46330;50.822;7.126;2023-04-26T12:46:51;101175.22;;;16.15;32.78
9141;BME280;46330;50.822;7.126;2023-04-26T12:49:19;101178.56;;;16.45;35.50
9141;BME280;46330;50.822;7.126;2023-04-26T12:51:47;101166.31;;;16.44;32.43
9141;BME280;46330;50.822;7.126;2023-04-26T12:54:15;101172.06;;;16.04;33.34
9141;BME280;46330;50.822;7.126;2023-04-26T12:56:43;101166.75;;;16.05;31.53
9141;BME280;46330;50.822;7.126;2023-04-26T12:59:11;101163.84;;;15.87;30.98
9141;BME280;46330;50.822;7.126;2023-04-26T13:01:40;101162.97;;;15.31;33.04
9141;BME280;46330;50.822;7.126;2023-04-26T13:04:08;101168.53;;;15.20;33.92
9141;BME280;46330;50.822;7.126;2023-04-26T13:06:37;101172.13;;;15.47;34.92
9141;BME280;46330;50.822;7.126;2023-04-26T13:09:05;101162.50;;;15.17;32.13
9141;BME280;46330;50.822;7.126;2023-04-26T13:11:34;101164.09;;;14.93;32.58
9141;BME280;46330;50.822;7.126;2023-04-26T13:14:02;101155.78;;;15.91;30.97
9141;BME280;46330;50.822;7.126;2023-04-26T13:16:32;101149.63;;;16.17;30.55
9141;BME280;46330;50.822;7.126;2023-04-26T13:19:02;101151.81;;;17.03;30.09
9141;BME280;46330;50.822;7.126;2023-04-26T13:21:30;101141.13;;;16.83;29.73
9141;BME280;46330;50.822;7.126;2023-04-26T13:23:58;101152.69;;;16.81;28.86
9141;BME280;46330;50.822;7.126;2023-04-26T13:26:25;101148.16;;;17.52;28.81
9141;BME280;46330;50.822;7.126;2023-04-26T13:28:54;101153.00;;;16.47;28.99
9141;BME280;46330;50.822;7.126;2023-04-26T13:31:22;101145.81;;;16.26;31.31
9141;BME280;46330;50.822;7.126;2023-04-26T13:33:50;101153.59;;;15.78;32.60
9141;BME280;46330;50.822;7.126;2023-04-26T13:36:19;101157.63;;;15.32;34.07
9141;BME280;46330;50.822;7.126;2023-04-26T13:38:47;101163.25;;;14.26;33.97
9141;BME280;46330;50.822;7.126;2023-04-26T13:41:15;101161.47;;;13.94;34.91
9141;BME280;46330;50.822;7.126;2023-04-26T13:43:43;101165.03;;;14.60;34.35
9141;BME280;46330;50.822;7.126;2023-04-26T13:46:11;101163.47;;;14.19;33.62
9141;BME280;46330;50.822;7.126;2023-04-26T13:48:39;101156.44;;;13.84;33.68
9141;BME280;46330;50.822;7.126;2023-04-26T13:51:07;101153.25;;;14.07;35.39
9141;BME280;46330;50.822;7.126;2023-04-26T13:53:38;101154.84;;;13.40;35.56
9141;BME280;46330;50.822;7.126;2023-04-26T13:56:06;101157.28;;;13.08;35.60
9141;BME280;46330;50.822;7.126;2023-04-26T13:58:35;101141.19;;;13.63;35.33
9141;BME280;46330;50.822;7.126;2023-04-26T14:01:03;101137.41;;;14.43;34.34
9141;BME280;46330;50.822;7.126;2023-04-26T14:03:31;101142.19;;;13.94;35.19
9141;BME280;46330;50.822;7.126;2023-04-26T14:05:59;101139.16;;;14.75;33.89
9141;BME280;46330;50.822;7.126;2023-04-26T14:08:28;101134.44;;;14.22;34.86
9141;BME280;46330;50.822;7.126;2023-04-26T14:10:58;101132.56;;;14.59;34.12
9141;BME280;46330;50.822;7.126;2023-04-26T14:13:26;101129.88;;;14.91;33.37
9141;BME280;46330;50.822;7.126;2023-04-26T14:15:54;101110.09;;;14.78;32.39
9141;BME280;46330;50.822;7.126;2023-04-26T14:18:22;101122.34;;;14.48;34.88
9141;BME280;46330;50.822;7.126;2023-04-26T14:20:50;101121.38;;;14.51;35.64
9141;BME280;46330;50.822;7.126;2023-04-26T14:23:19;101125.69;;;14.20;35.07
9141;BME280;46330;50.822;7.126;2023-04-26T14:25:50;101129.22;;;13.51;36.01
9141;BME280;46330;50.822;7.126;2023-04-26T14:28:19;101135.56;;;13.78;35.30
9141;BME280;46330;50.822;7.126;2023-04-26T14:30:47;101132.34;;;13.67;35.72
9141;BME280;46330;50.822;7.126;2023-04-26T14:33:15;101123.81;;;13.57;34.21
9141;BME280;46330;50.822;7.126;2023-04-26T14:35:43;101131.13;;;13.80;35.62
9141;BME280;46330;50.822;7.126;2023-04-26T14:38:11;101126.00;;;13.74;35.92
9141;BME280;46330;50.822;7.126;2023-04-26T14:40:40;101120.66;;;13.78;34.33
9141;BME280;46330;50.822;7.126;2023-04-26T14:43:07;101125.66;;;13.54;35.07
9141;BME280;46330;50.822;7.126;2023-04-26T14:45:37;101109.41;;;14.07;35.51
9141;BME280;46330;50.822;7.126;2023-04-26T14:48:10;101106.28;;;14.25;34.42
9141;BME280;46330;50.822;7.126;2023-04-26T14:50:38;101108.69;;;14.00;34.18
9141;BME280;46330;50.822;7.126;2023-04-26T14:53:06;101111.16;;;13.73;34.42
9141;BME280;46330;50.822;7.126;2023-04-26T14:55:35;101103.94;;;13.81;35.21
9141;BME280;46330;50.822;7.126;2023-04-26T14:58:03;101118.09;;;13.75;35.31
9141;BME280;46330;50.822;7.126;2023-04-26T15:00:31;101122.53;;;13.36;34.77
9141;BME280;46330;50.822;7.126;2023-04-26T15:03:00;101114.63;;;13.73;33.67
9141;BME280;46330;50.822;7.126;2023-04-26T15:05:28;101109.63;;;14.32;33.54
9141;BME280;46330;50.822;7.126;2023-04-26T15:07:56;101112.59;;;13.49;34.67
9141;BME280;46330;50.822;7.126;2023-04-26T15:10:24;101118.72;;;13.50;35.55
9141;BME280;46330;50.822;7.126;2023-04-26T15:12:52;101112.22;;;13.64;36.52
9141;BME280;46330;50.822;7.126;2023-04-26T15:15:20;101113.16;;;13.25;35.38
9141;BME280;46330;50.822;7.126;2023-04-26T15:17:48;101104.28;;;13.30;37.04
9141;BME280;46330;50.822;7.126;2023-04-26T15:20:17;101086.56;;;13.75;34.80
9141;BME280;46330;50.822;7.126;2023-04-26T15:22:45;101089.72;;;13.53;36.74
9141;BME280;46330;50.822;7.126;2023-04-26T15:25:14;101084.22;;;13.26;37.66
9141;BME280;46330;50.822;7.126;2023-04-26T15:27:42;101086.75;;;13.31;36.71
9141;BME280;46330;50.822;7.126;2023-04-26T15:30:11;101081.28;;;13.40;38.52
9141;BME280;46330;50.822;7.126;2023-04-26T15:32:39;101084.06;;;13.69;36.68
9141;BME280;46330;50.822;7.126;2023-04-26T15:35:11;101081.78;;;13.89;36.14
9141;BME280;46330;50.822;7.126;2023-04-26T15:37:40;101083.75;;;13.48;35.38
9141;BME280;46330;50.822;7.126;2023-04-26T15:40:10;101078.13;;;13.61;36.21
9141;BME280;46330;50.822;7.126;2023-04-26T15:42:38;101085.00;;;13.31;36.10
9141;BME280;46330;50.822;7.126;2023-04-26T15:45:07;101090.91;;;13.41;36.37
9141;BME280;46330;50.822;7.126;2023-04-26T15:47:35;101096.00;;;13.09;36.43
9141;BME280;46330;50.822;7.126;2023-04-26T15:50:04;101097.31;;;13.29;37.42
9141;BME280;46330;50.822;7.126;2023-04-26T15:52:33;101094.84;;;13.22;37.03
9141;BME280;46330;50.822;7.126;2023-04-26T15:55:06;101091.78;;;13.41;35.09
9141;BME280;46330;50.822;7.126;2023-04-26T15:57:35;101087.81;;;13.59;36.01
9141;BME280;46330;50.822;7.126;2023-04-26T16:00:04;101087.91;;;13.19;37.14
9141;BME280;46330;50.822;7.126;2023-04-26T16:02:34;101088.06;;;13.50;35.51
9141;BME280;46330;50.822;7.126;2023-04-26T16:05:02;101083.03;;;13.41;35.87
9141;BME280;46330;50.822;7.126;2023-04-26T16:07:32;101088.91;;;12.72;36.14
9141;BME280;46330;50.822;7.126;2023-04-26T16:10:00;101085.59;;;12.63;36.86
9141;BME280;46330;50.822;7.126;2023-04-26T16:12:30;101085.63;;;12.61;36.28
9141;BME280;46330;50.822;7.126;2023-04-26T16:14:58;101091.06;;;12.52;36.23
9141;BME280;46330;50.822;7.126;2023-04-26T16:17:25;101093.75;;;12.49;36.66
9141;BME280;46330;50.822;7.126;2023-04-26T16:19:53;101091.53;;;12.28;37.10
9141;BME280;46330;50.822;7.126;2023-04-26T16:22:21;101087.47;;;12.12;37.08
9141;BME280;46330;50.822;7.126;2023-04-26T16:24:49;101088.63;;;11.97;38.25
9141;BME280;46330;50.822;7.126;2023-04-26T16:27:17;101084.66;;;12.22;37.62
9141;BME280;46330;50.822;7.126;2023-04-26T16:29:47;101091.22;;;12.45;37.71
9141;BME280;46330;50.822;7.126;2023-04-26T16:32:15;101087.03;;;12.34;38.07
9141;BME280;46330;50.822;7.126;2023-04-26T16:34:43;101094.03;;;12.35;38.48
9141;BME280;46330;50.822;7.126;2023-04-26T16:37:11;101087.28;;;12.21;37.80
9141;BME280;46330;50.822;7.126;2023-04-26T16:39:40;101079.53;;;12.15;39.53
9141;BME280;46330;50.822;7.126;2023-04-26T16:42:08;101085.34;;;12.32;39.55
9141;BME280;46330;50.822;7.126;2023-04-26T16:44:36;101076.28;;;12.02;39.48
9141;BME280;46330;50.822;7.126;2023-04-26T16:47:05;101076.06;;;12.14;37.75
9141;BME280;46330;50.822;7.126;2023-04-26T16:49:33;101075.22;;;12.14;39.36
9141;BME280;46330;50.822;7.126;2023-04-26T16:52:01;101077.84;;;12.14;39.46
9141;BME280;46330;50.822;7.126;2023-04-26T16:54:29;101080.00;;;11.91;37.43
9141;BME280;46330;50.822;7.126;2023-04-26T16:56:57;101081.09;;;11.79;37.87
9141;BME280;46330;50.822;7.126;2023-04-26T16:59:25;101078.94;;;12.01;38.20
9141;BME280;46330;50.822;7.126;2023-04-26T17:01:54;101086.06;;;11.94;39.60